sensor_id;sensor_type;location;lat;lon;timestamp;pressure;altitude;pressure_sealevel;temperature;humidity
75425;BME280;64007;50.632;13.700;2023-05-07T00:01:56;98248.06;;;8.82;100.00
75425;BME280;64007;50.632;13.700;2023-05-07T00:04:22;98248.69;;;8.72;100.00
75425;BME280;64007;50.632;13.700;2023-05-07T00:06:48;98238.41;;;8.55;100.00
75425;BME280;64007;50.632;13.700;2023-05-07T00:09:13;98244.25;;;8.60;100.00
75425;BME280;64007;50.632;13.700;2023-05-07T00:11:39;98248.16;;;8.55;100.00
75425;BME280;64007;50.632;13.700;2023-05-07T00:14:06;98236.50;;;8.44;100.00
75425;BME280;64007;50.632;13.700;2023-05-07T00:16:31;98241.97;;;8.29;100.00
75425;BME280;64007;50.632;13.700;2023-05-07T00:18:57;98244.41;;;8.32;100.00
75425;BME280;64007;50.632;13.700;2023-05-07T00:21:23;98239.59;;;8.51;100.00
75425;BME280;64007;50.632;13.700;2023-05-07T00:23:54;98242.09;;;8.40;100.00
75425;BME280;64007;50.632;13.700;2023-05-07T00:26:20;98240.41;;;8.39;100.00
75425;BME280;64007;50.632;13.700;2023-05-07T00:28:46;98244.19;;;8.22;100.00
75425;BME280;64007;50.632;13.700;2023-05-07T00:31:12;98247.56;;;8.11;100.00
75425;BME280;64007;50.632;13.700;2023-05-07T00:33:38;98254.66;;;8.11;100.00
75425;BME280;64007;50.632;13.700;2023-05-07T00:36:04;98257.63;;;8.06;100.00
75425;BME280;64007;50.632;13.700;2023-05-07T00:38:30;98256.66;;;8.07;100.00
75425;BME280;64007;50.632;13.700;2023-05-07T00:40:56;98255.72;;;8.08;100.00
75425;BME280;64007;50.632;13.700;2023-05-07T00:43:21;98247.75;;;8.08;100.00
75425;BME280;64007;50.632;13.700;2023-05-07T00:45:47;98242.16;;;8.13;100.00
75425;BME280;64007;50.632;13.700;2023-05-07T00:48:14;98249.25;;;8.12;100.00
75425;BME280;64007;50.632;13.700;2023-05-07T00:50:40;98256.03;;;8.16;100.00
75425;BME280;64007;50.632;13.700;2023-05-07T00:53:06;98246.09;;;8.20;100.00
75425;BME280;64007;50.632;13.700;2023-05-07T00:55:32;98246.72;;;8.24;100.00
75425;BME280;64007;50.632;13.700;2023-05-07T00:57:58;98242.06;;;8.27;100.00
75425;BME280;64007;50.632;13.700;2023-05-07T01:00:24;98241.84;;;8.30;100.00
75425;BME280;64007;50.632;13.700;2023-05-07T01:02:50;98245.91;;;8.36;100.00
75425;BME280;64007;50.632;13.700;2023-05-07T01:05:19;98254.31;;;8.42;100.00
75425;BME280;64007;50.632;13.700;2023-05-07T01:07:46;98257.41;;;8.49;100.00
75425;BME280;64007;50.632;13.700;2023-05-07T01:10:12;98260.56;;;8.54;100.00
75425;BME280;64007;50.632;13.700;2023-05-07T01:12:39;98258.22;;;8.62;100.00
75425;BME280;64007;50.632;13.700;2023-05-07T01:15:06;98261.41;;;8.67;100.00
75425;BME280;64007;50.632;13.700;2023-05-07T01:17:34;98267.59;;;8.81;100.00
75425;BME280;64007;50.632;13.700;2023-05-07T01:20:00;98254.84;;;8.86;100.00
75425;BME280;64007;50.632;13.700;2023-05-07T01:22:34;98256.31;;;8.90;100.00
75425;BME280;64007;50.632;13.700;2023-05-07T01:25:00;98256.63;;;8.98;100.00
75425;BME280;64007;50.632;13.700;2023-05-07T01:27:27;98257.66;;;9.08;100.00
75425;BME280;64007;50.632;13.700;2023-05-07T01:29:53;98257.22;;;9.14;100.00
75425;BME280;64007;50.632;13.700;2023-05-07T01:32:27;98255.84;;;9.21;100.00
75425;BME280;64007;50.632;13.700;2023-05-07T01:34:55;98261.34;;;9.31;100.00
75425;BME280;64007;50.632;13.700;2023-05-07T01:37:21;98264.50;;;9.36;100.00
75425;BME280;64007;50.632;13.700;2023-05-07T01:39:47;98265.75;;;9.43;100.00
75425;BME280;64007;50.632;13.700;2023-05-07T01:42:13;98268.09;;;9.48;100.00
75425;BME280;64007;50.632;13.700;2023-05-07T01:44:39;98267.00;;;9.50;100.00
75425;BME280;64007;50.632;13.700;2023-05-07T01:47:06;98267.63;;;9.54;100.00
75425;BME280;64007;50.632;13.700;2023-05-07T01:49:31;98265.72;;;9.56;100.00
75425;BME280;64007;50.632;13.700;2023-05-07T01:51:58;98261.88;;;9.60;100.00
75425;BME280;64007;50.632;13.700;2023-05-07T01:54:27;98263.59;;;9.61;100.00
75425;BME280;64007;50.632;13.700;2023-05-07T01:56:56;98264.44;;;9.61;100.00
75425;BME280;64007;50.632;13.700;2023-05-07T01:59:21;98269.53;;;9.64;100.00
75425;BME280;64007;50.632;13.700;2023-05-07T02:01:47;98266.53;;;9.69;100.00
75425;BME280;64007;50.632;13.700;2023-05-07T02:04:13;98270.16;;;9.68;100.00
75425;BME280;64007;50.632;13.700;2023-05-07T02:06:39;98269.94;;;9.71;100.00
75425;BME280;64007;50.632;13.700;2023-05-07T02:09:04;98267.78;;;9.76;100.00
75425;BME280;64007;50.632;13.700;2023-05-07T02:11:30;98282.63;;;9.79;100.00
75425;BME280;64007;50.632;13.700;2023-05-07T02:13:56;98280.09;;;9.77;100.00
75425;BME280;64007;50.632;13.700;2023-05-07T02:16:22;98278.41;;;9.76;100.00
75425;BME280;64007;50.632;13.700;2023-05-07T02:18:48;98286.13;;;9.79;100.00
75425;BME280;64007;50.632;13.700;2023-05-07T02:21:14;98275.41;;;9.81;100.00
75425;BME280;64007;50.632;13.700;2023-05-07T02:23:40;98273.47;;;9.83;100.00
75425;BME280;64007;50.632;13.700;2023-05-07T02:26:06;98277.50;;;9.88;100.00
75425;BME280;64007;50.632;13.700;2023-05-07T02:28:31;98285.34;;;9.90;100.00
75425;BME280;64007;50.632;13.700;2023-05-07T02:30:57;98284.38;;;9.91;100.00
75425;BME280;64007;50.632;13.700;2023-05-07T02:33:26;98288.38;;;9.96;100.00
75425;BME280;64007;50.632;13.700;2023-05-07T02:35:52;98289.34;;;9.95;100.00
75425;BME280;64007;50.632;13.700;2023-05-07T02:38:17;98287.97;;;10.02;100.00
75425;BME280;64007;50.632;13.700;2023-05-07T02:40:43;98292.31;;;10.03;100.00
75425;BME280;64007;50.632;13.700;2023-05-07T02:43:09;98279.53;;;10.09;100.00
75425;BME280;64007;50.632;13.700;2023-05-07T02:45:35;98280.25;;;10.11;100.00
75425;BME280;64007;50.632;13.700;2023-05-07T02:48:03;98280.59;;;10.06;100.00
75425;BME280;64007;50.632;13.700;2023-05-07T02:50:29;98278.06;;;10.04;100.00
75425;BME280;64007;50.632;13.700;2023-05-07T02:52:55;98274.44;;;10.05;100.00
75425;BME280;64007;50.632;13.700;2023-05-07T02:55:21;98277.09;;;10.05;100.00
75425;BME280;64007;50.632;13.700;2023-05-07T02:57:46;98272.53;;;10.08;100.00
75425;BME280;64007;50.632;13.700;2023-05-07T03:00:14;98273.13;;;10.11;100.00
75425;BME280;64007;50.632;13.700;2023-05-07T03:02:40;98284.72;;;10.10;100.00
75425;BME280;64007;50.632;13.700;2023-05-07T03:05:06;98280.38;;;10.09;100.00
75425;BME280;64007;50.632;13.700;2023-05-07T03:07:32;98278.69;;;10.08;100.00
75425;BME280;64007;50.632;13.700;2023-05-07T03:09:58;98274.94;;;10.11;100.00
75425;BME280;64007;50.632;13.700;2023-05-07T03:12:23;98281.84;;;10.13;100.00
75425;BME280;64007;50.632;13.700;2023-05-07T03:14:49;98294.03;;;10.16;100.00
75425;BME280;64007;50.632;13.700;2023-05-07T03:17:14;98284.63;;;10.12;100.00
75425;BME280;64007;50.632;13.700;2023-05-07T03:19:41;98288.22;;;10.11;100.00
75425;BME280;64007;50.632;13.700;2023-05-07T03:22:07;98288.22;;;10.11;100.00
75425;BME280;64007;50.632;13.700;2023-05-07T03:24:33;98279.31;;;10.12;100.00
75425;BME280;64007;50.632;13.700;2023-05-07T03:26:58;98279.31;;;10.12;100.00
75425;BME280;64007;50.632;13.700;2023-05-07T03:29:24;98282.81;;;10.12;100.00
75425;BME280;64007;50.632;13.700;2023-05-07T03:31:50;98279.91;;;10.15;100.00
75425;BME280;64007;50.632;13.700;2023-05-07T03:34:16;98288.00;;;10.14;100.00
75425;BME280;64007;50.632;13.700;2023-05-07T03:36:48;98289.59;;;10.16;100.00
75425;BME280;64007;50.632;13.700;2023-05-07T03:39:14;98290.31;;;10.18;100.00
75425;BME280;64007;50.632;13.700;2023-05-07T03:41:40;98294.59;;;10.21;100.00
75425;BME280;64007;50.632;13.700;2023-05-07T03:44:06;98292.34;;;10.15;100.00
75425;BME280;64007;50.632;13.700;2023-05-07T03:46:31;98297.31;;;10.19;100.00
75425;BME280;64007;50.632;13.700;2023-05-07T03:48:58;98295.75;;;10.17;100.00
75425;BME280;64007;50.632;13.700;2023-05-07T03:51:24;98293.09;;;10.17;100.00
75425;BME280;64007;50.632;13.700;2023-05-07T03:53:50;98290.44;;;10.17;100.00
75425;BME280;64007;50.632;13.700;2023-05-07T03:56:18;98296.72;;;10.16;100.00
75425;BME280;64007;50.632;13.700;2023-05-07T03:58:44;98303.72;;;10.17;100.00
75425;BME280;64007;50.632;13.700;2023-05-07T04:01:10;98299.25;;;10.17;100.00
75425;BME280;64007;50.632;13.700;2023-05-07T04:03:36;98309.03;;;10.17;100.00
75425;BME280;64007;50.632;13.700;2023-05-07T04:06:01;98305.41;;;10.18;100.00
75425;BME280;64007;50.632;13.700;2023-05-07T04:08:27;98308.41;;;10.13;100.00
75425;BME280;64007;50.632;13.700;2023-05-07T04:10:57;98311.19;;;10.12;100.00
75425;BME280;64007;50.632;13.700;2023-05-07T04:13:24;98306.09;;;10.09;100.00
75425;BME280;64007;50.632;13.700;2023-05-07T04:15:51;98317.91;;;10.04;100.00
75425;BME280;64007;50.632;13.700;2023-05-07T04:18:17;98316.50;;;10.12;100.00
75425;BME280;64007;50.632;13.700;2023-05-07T04:20:42;98309.03;;;10.17;100.00
75425;BME280;64007;50.632;13.700;2023-05-07T04:23:08;98304.91;;;10.13;100.00
75425;BME280;64007;50.632;13.700;2023-05-07T04:25:34;98314.34;;;10.17;100.00
75425;BME280;64007;50.632;13.700;2023-05-07T04:28:00;98319.66;;;10.17;100.00
75425;BME280;64007;50.632;13.700;2023-05-07T04:30:26;98314.56;;;10.14;100.00
75425;BME280;64007;50.632;13.700;2023-05-07T04:32:52;98318.19;;;10.13;100.00
75425;BME280;64007;50.632;13.700;2023-05-07T04:35:18;98330.75;;;10.11;100.00
75425;BME280;64007;50.632;13.700;2023-05-07T04:37:44;98332.66;;;10.09;100.00
75425;BME280;64007;50.632;13.700;2023-05-07T04:40:10;98332.44;;;10.12;100.00
75425;BME280;64007;50.632;13.700;2023-05-07T04:42:36;98334.75;;;10.16;100.00
75425;BME280;64007;50.632;13.700;2023-05-07T04:45:02;98335.59;;;10.17;100.00
75425;BME280;64007;50.632;13.700;2023-05-07T04:47:28;98326.28;;;10.11;100.00
75425;BME280;64007;50.632;13.700;2023-05-07T04:49:53;98318.41;;;10.10;100.00
75425;BME280;64007;50.632;13.700;2023-05-07T04:52:19;98326.66;;;10.18;100.00
75425;BME280;64007;50.632;13.700;2023-05-07T04:54:45;98332.22;;;10.15;100.00
75425;BME280;64007;50.632;13.700;2023-05-07T04:57:11;98323.28;;;10.16;100.00
75425;BME280;64007;50.632;13.700;2023-05-07T04:59:36;98327.63;;;10.17;100.00
75425;BME280;64007;50.632;13.700;2023-05-07T05:02:02;98321.34;;;10.18;100.00
75425;BME280;64007;50.632;13.700;2023-05-07T05:04:29;98330.41;;;10.15;100.00
75425;BME280;64007;50.632;13.700;2023-05-07T05:06:55;98330.28;;;10.17;100.00
75425;BME280;64007;50.632;13.700;2023-05-07T05:09:21;98332.22;;;10.15;100.00
75425;BME280;64007;50.632;13.700;2023-05-07T05:11:47;98339.94;;;10.18;100.00
75425;BME280;64007;50.632;13.700;2023-05-07T05:14:13;98344.84;;;10.24;100.00
75425;BME280;64007;50.632;13.700;2023-05-07T05:16:39;98342.69;;;10.29;100.00
75425;BME280;64007;50.632;13.700;2023-05-07T05:19:04;98344.16;;;10.33;100.00
75425;BME280;64007;50.632;13.700;2023-05-07T05:21:31;98349.97;;;10.38;100.00
75425;BME280;64007;50.632;13.700;2023-05-07T05:23:58;98349.78;;;10.41;100.00
75425;BME280;64007;50.632;13.700;2023-05-07T05:26:23;98355.28;;;10.38;100.00
75425;BME280;64007;50.632;13.700;2023-05-07T05:28:49;98352.50;;;10.40;100.00
75425;BME280;64007;50.632;13.700;2023-05-07T05:31:16;98351.91;;;10.36;100.00
75425;BME280;64007;50.632;13.700;2023-05-07T05:33:41;98361.44;;;10.39;100.00
75425;BME280;64007;50.632;13.700;2023-05-07T05:36:11;98361.00;;;10.45;100.00
75425;BME280;64007;50.632;13.700;2023-05-07T05:38:38;98362.25;;;10.52;100.00
75425;BME280;64007;50.632;13.700;2023-05-07T05:41:05;98367.06;;;10.47;100.00
75425;BME280;64007;50.632;13.700;2023-05-07T05:43:30;98361.25;;;10.42;100.00
75425;BME280;64007;50.632;13.700;2023-05-07T05:45:57;98364.94;;;10.39;100.00
75425;BME280;64007;50.632;13.700;2023-05-07T05:48:23;98373.34;;;10.46;100.00
75425;BME280;64007;50.632;13.700;2023-05-07T05:50:49;98378.44;;;10.49;100.00
75425;BME280;64007;50.632;13.700;2023-05-07T05:53:14;98391.53;;;10.39;100.00
75425;BME280;64007;50.632;13.700;2023-05-07T05:55:41;98385.31;;;10.27;100.00
75425;BME280;64007;50.632;13.700;2023-05-07T05:58:07;98384.94;;;10.21;100.00
75425;BME280;64007;50.632;13.700;2023-05-07T06:00:33;98387.47;;;10.22;100.00
75425;BME280;64007;50.632;13.700;2023-05-07T06:02:58;98389.78;;;10.27;100.00
75425;BME280;64007;50.632;13.700;2023-05-07T06:05:25;98392.97;;;10.32;100.00
75425;BME280;64007;50.632;13.700;2023-05-07T06:07:50;98393.78;;;10.45;100.00
75425;BME280;64007;50.632;13.700;2023-05-07T06:10:16;98393.78;;;10.45;100.00
75425;BME280;64007;50.632;13.700;2023-05-07T06:12:41;98389.56;;;10.54;100.00
75425;BME280;64007;50.632;13.700;2023-05-07T06:15:07;98384.91;;;10.68;100.00
75425;BME280;64007;50.632;13.700;2023-05-07T06:17:33;98389.09;;;10.84;100.00
75425;BME280;64007;50.632;13.700;2023-05-07T06:19:59;98396.63;;;11.01;100.00
75425;BME280;64007;50.632;13.700;2023-05-07T06:22:25;98403.88;;;10.99;100.00
75425;BME280;64007;50.632;13.700;2023-05-07T06:24:51;98409.44;;;10.96;100.00
75425;BME280;64007;50.632;13.700;2023-05-07T06:27:16;98408.09;;;11.02;100.00
75425;BME280;64007;50.632;13.700;2023-05-07T06:29:42;98405.94;;;11.07;100.00
75425;BME280;64007;50.632;13.700;2023-05-07T06:32:11;98407.50;;;10.98;100.00
75425;BME280;64007;50.632;13.700;2023-05-07T06:34:38;98404.56;;;10.90;100.00
75425;BME280;64007;50.632;13.700;2023-05-07T06:37:04;98406.53;;;10.99;100.00
75425;BME280;64007;50.632;13.700;2023-05-07T06:39:31;98404.34;;;10.93;100.00
75425;BME280;64007;50.632;13.700;2023-05-07T06:41:56;98403.59;;;10.91;98.68
75425;BME280;64007;50.632;13.700;2023-05-07T06:44:22;98405.78;;;10.97;96.59
75425;BME280;64007;50.632;13.700;2023-05-07T06:46:48;98411.97;;;10.97;86.20
75425;BME280;64007;50.632;13.700;2023-05-07T06:49:14;98409.91;;;10.90;90.14
75425;BME280;64007;50.632;13.700;2023-05-07T06:51:40;98409.81;;;11.03;92.33
75425;BME280;64007;50.632;13.700;2023-05-07T06:54:05;98418.75;;;11.13;91.04
75425;BME280;64007;50.632;13.700;2023-05-07T06:56:32;98412.88;;;11.32;91.22
75425;BME280;64007;50.632;13.700;2023-05-07T06:59:00;98416.03;;;11.48;86.27
75425;BME280;64007;50.632;13.700;2023-05-07T07:01:25;98412.94;;;11.65;82.50
75425;BME280;64007;50.632;13.700;2023-05-07T07:03:51;98415.38;;;11.79;82.12
75425;BME280;64007;50.632;13.700;2023-05-07T07:06:17;98419.22;;;11.98;79.45
75425;BME280;64007;50.632;13.700;2023-05-07T07:08:43;98415.59;;;11.99;79.70
75425;BME280;64007;50.632;13.700;2023-05-07T07:11:09;98428.44;;;11.93;81.85
75425;BME280;64007;50.632;13.700;2023-05-07T07:13:35;98427.72;;;11.80;82.42
75425;BME280;64007;50.632;13.700;2023-05-07T07:16:01;98424.78;;;11.72;84.43
75425;BME280;64007;50.632;13.700;2023-05-07T07:18:27;98434.34;;;11.64;84.92
75425;BME280;64007;50.632;13.700;2023-05-07T07:20:53;98430.31;;;11.47;90.82
75425;BME280;64007;50.632;13.700;2023-05-07T07:23:19;98423.78;;;11.40;90.87
75425;BME280;64007;50.632;13.700;2023-05-07T07:25:44;98433.72;;;11.49;84.57
75425;BME280;64007;50.632;13.700;2023-05-07T07:28:10;98429.59;;;11.22;87.36
75425;BME280;64007;50.632;13.700;2023-05-07T07:30:36;98434.59;;;11.03;89.17
75425;BME280;64007;50.632;13.700;2023-05-07T07:33:04;98444.00;;;10.96;92.37
75425;BME280;64007;50.632;13.700;2023-05-07T07:35:31;98437.22;;;10.92;90.35
75425;BME280;64007;50.632;13.700;2023-05-07T07:37:57;98433.97;;;10.99;90.35
75425;BME280;64007;50.632;13.700;2023-05-07T07:40:23;98436.41;;;11.03;86.47
75425;BME280;64007;50.632;13.700;2023-05-07T07:42:51;98439.09;;;11.14;87.40
75425;BME280;64007;50.632;13.700;2023-05-07T07:45:16;98441.28;;;11.20;84.87
75425;BME280;64007;50.632;13.700;2023-05-07T07:47:42;98447.63;;;11.30;86.33
75425;BME280;64007;50.632;13.700;2023-05-07T07:50:09;98452.97;;;11.41;84.66
75425;BME280;64007;50.632;13.700;2023-05-07T07:52:35;98452.47;;;11.47;81.88
75425;BME280;64007;50.632;13.700;2023-05-07T07:55:01;98452.84;;;11.54;81.68
75425;BME280;64007;50.632;13.700;2023-05-07T07:57:27;98454.09;;;11.61;80.66
75425;BME280;64007;50.632;13.700;2023-05-07T07:59:53;98457.84;;;11.70;81.18
75425;BME280;64007;50.632;13.700;2023-05-07T08:02:19;98463.53;;;11.76;79.35
75425;BME280;64007;50.632;13.700;2023-05-07T08:04:44;98460.28;;;11.84;78.85
75425;BME280;64007;50.632;13.700;2023-05-07T08:07:10;98465.75;;;12.05;78.44
75425;BME280;64007;50.632;13.700;2023-05-07T08:09:40;98463.44;;;12.11;76.79
75425;BME280;64007;50.632;13.700;2023-05-07T08:12:07;98462.81;;;12.30;76.58
75425;BME280;64007;50.632;13.700;2023-05-07T08:14:33;98469.31;;;12.37;78.95
75425;BME280;64007;50.632;13.700;2023-05-07T08:16:59;98469.06;;;12.40;79.12
75425;BME280;64007;50.632;13.700;2023-05-07T08:19:25;98469.19;;;12.39;76.29
75425;BME280;64007;50.632;13.700;2023-05-07T08:21:51;98474.41;;;12.40;74.13
75425;BME280;64007;50.632;13.700;2023-05-07T08:24:17;98475.63;;;12.47;74.64
75425;BME280;64007;50.632;13.700;2023-05-07T08:26:44;98481.47;;;12.41;74.81
75425;BME280;64007;50.632;13.700;2023-05-07T08:29:09;98477.84;;;12.42;74.52
75425;BME280;64007;50.632;13.700;2023-05-07T08:31:36;98479.03;;;12.38;74.51
75425;BME280;64007;50.632;13.700;2023-05-07T08:34:04;98479.53;;;12.32;75.85
75425;BME280;64007;50.632;13.700;2023-05-07T08:36:30;98478.56;;;12.33;75.34
75425;BME280;64007;50.632;13.700;2023-05-07T08:38:56;98486.06;;;12.28;74.40
75425;BME280;64007;50.632;13.700;2023-05-07T08:41:22;98486.06;;;12.28;74.58
75425;BME280;64007;50.632;13.700;2023-05-07T08:43:49;98490.91;;;12.34;73.63
75425;BME280;64007;50.632;13.700;2023-05-07T08:46:20;98498.78;;;12.36;74.50
75425;BME280;64007;50.632;13.700;2023-05-07T08:48:49;98496.00;;;12.37;74.37
75425;BME280;64007;50.632;13.700;2023-05-07T08:51:17;98499.38;;;12.39;73.98
75425;BME280;64007;50.632;13.700;2023-05-07T08:53:46;98501.31;;;12.37;73.55
75425;BME280;64007;50.632;13.700;2023-05-07T08:56:14;98504.75;;;12.28;73.67
75425;BME280;64007;50.632;13.700;2023-05-07T08:58:45;98494.91;;;12.40;73.96
75425;BME280;64007;50.632;13.700;2023-05-07T09:01:16;98501.56;;;12.34;73.41
75425;BME280;64007;50.632;13.700;2023-05-07T09:03:44;98502.06;;;12.28;75.38
75425;BME280;64007;50.632;13.700;2023-05-07T09:06:11;98501.06;;;12.40;74.83
75425;BME280;64007;50.632;13.700;2023-05-07T09:08:36;98506.91;;;12.57;74.40
75425;BME280;64007;50.632;13.700;2023-05-07T09:11:02;98502.81;;;12.84;71.92
75425;BME280;64007;50.632;13.700;2023-05-07T09:13:29;98502.50;;;12.67;73.66
75425;BME280;64007;50.632;13.700;2023-05-07T09:15:55;98502.75;;;12.64;73.97
75425;BME280;64007;50.632;13.700;2023-05-07T09:18:21;98510.03;;;12.62;75.17
75425;BME280;64007;50.632;13.700;2023-05-07T09:20:49;98507.38;;;12.62;70.77
75425;BME280;64007;50.632;13.700;2023-05-07T09:23:14;98507.50;;;12.60;72.76
75425;BME280;64007;50.632;13.700;2023-05-07T09:25:40;98508.09;;;12.64;73.21
75425;BME280;64007;50.632;13.700;2023-05-07T09:28:06;98508.69;;;12.67;72.59
75425;BME280;64007;50.632;13.700;2023-05-07T09:30:33;98506.38;;;12.63;72.22
75425;BME280;64007;50.632;13.700;2023-05-07T09:33:01;98509.53;;;12.68;74.04
75425;BME280;64007;50.632;13.700;2023-05-07T09:35:27;98511.69;;;12.74;73.81
75425;BME280;64007;50.632;13.700;2023-05-07T09:37:53;98520.53;;;12.74;73.07
75425;BME280;64007;50.632;13.700;2023-05-07T09:40:21;98510.03;;;12.62;72.34
75425;BME280;64007;50.632;13.700;2023-05-07T09:42:48;98505.38;;;12.75;72.57
75425;BME280;64007;50.632;13.700;2023-05-07T09:45:35;98498.47;;;12.83;74.18
75425;BME280;64007;50.632;13.700;2023-05-07T09:48:04;98510.31;;;12.91;73.34
75425;BME280;64007;50.632;13.700;2023-05-07T09:50:48;98508.97;;;12.96;71.47
75425;BME280;64007;50.632;13.700;2023-05-07T09:53:16;98509.63;;;13.09;72.23
75425;BME280;64007;50.632;13.700;2023-05-07T09:55:43;98512.13;;;13.33;71.77
75425;BME280;64007;50.632;13.700;2023-05-07T09:58:09;98505.06;;;13.53;70.31
75425;BME280;64007;50.632;13.700;2023-05-07T10:00:39;98508.19;;;13.58;68.41
75425;BME280;64007;50.632;13.700;2023-05-07T10:03:05;98502.16;;;13.77;67.77
75425;BME280;64007;50.632;13.700;2023-05-07T10:05:32;98505.13;;;13.84;66.73
75425;BME280;64007;50.632;13.700;2023-05-07T10:07:58;98508.28;;;13.98;67.20
75425;BME280;64007;50.632;13.700;2023-05-07T10:10:24;98512.13;;;13.54;66.27
75425;BME280;64007;50.632;13.700;2023-05-07T10:12:50;98510.88;;;13.37;68.49
75425;BME280;64007;50.632;13.700;2023-05-07T10:15:17;98505.59;;;13.47;67.96
75425;BME280;64007;50.632;13.700;2023-05-07T10:17:43;98507.00;;;13.62;68.35
75425;BME280;64007;50.632;13.700;2023-05-07T10:20:09;98509.59;;;13.73;67.66
75425;BME280;64007;50.632;13.700;2023-05-07T10:22:41;98508.25;;;13.89;66.11
75425;BME280;64007;50.632;13.700;2023-05-07T10:25:34;98519.06;;;14.08;64.67
75425;BME280;64007;50.632;13.700;2023-05-07T10:28:06;98520.69;;;13.99;65.02
75425;BME280;64007;50.632;13.700;2023-05-07T10:30:48;98519.34;;;14.05;65.22
75425;BME280;64007;50.632;13.700;2023-05-07T10:33:20;98514.31;;;14.21;63.56
75425;BME280;64007;50.632;13.700;2023-05-07T10:35:47;98516.88;;;14.32;63.31
75425;BME280;64007;50.632;13.700;2023-05-07T10:38:13;98514.16;;;14.44;62.75
75425;BME280;64007;50.632;13.700;2023-05-07T10:40:39;98505.31;;;14.53;63.71
75425;BME280;64007;50.632;13.700;2023-05-07T10:43:06;98509.44;;;14.66;63.90
75425;BME280;64007;50.632;13.700;2023-05-07T10:45:32;98513.00;;;14.86;63.25
75425;BME280;64007;50.632;13.700;2023-05-07T10:50:38;98514.56;;;15.18;63.05
75425;BME280;64007;50.632;13.700;2023-05-07T10:56:03;98516.94;;;15.50;61.93
75425;BME280;64007;50.632;13.700;2023-05-07T10:58:37;98514.00;;;15.43;59.91
75425;BME280;64007;50.632;13.700;2023-05-07T11:01:03;98516.28;;;15.28;59.51
75425;BME280;64007;50.632;13.700;2023-05-07T11:03:29;98520.19;;;15.15;60.76
75425;BME280;64007;50.632;13.700;2023-05-07T11:06:12;98521.88;;;15.06;61.06
75425;BME280;64007;50.632;13.700;2023-05-07T11:11:16;98518.22;;;14.88;60.50
75425;BME280;64007;50.632;13.700;2023-05-07T11:16:21;98508.78;;;15.42;60.61
75425;BME280;64007;50.632;13.700;2023-05-07T11:18:53;98507.50;;;15.55;56.37
75425;BME280;64007;50.632;13.700;2023-05-07T11:21:37;98512.75;;;15.66;58.50
75425;BME280;64007;50.632;13.700;2023-05-07T11:24:04;98500.53;;;15.91;58.12
75425;BME280;64007;50.632;13.700;2023-05-07T11:26:42;98503.78;;;16.59;55.93
75425;BME280;64007;50.632;13.700;2023-05-07T11:31:41;98500.41;;;17.74;55.23
75425;BME280;64007;50.632;13.700;2023-05-07T11:34:07;98486.59;;;18.63;52.91
75425;BME280;64007;50.632;13.700;2023-05-07T11:36:33;98483.09;;;18.70;48.08
75425;BME280;64007;50.632;13.700;2023-05-07T11:38:59;98496.22;;;18.73;48.68
75425;BME280;64007;50.632;13.700;2023-05-07T11:41:35;98499.66;;;19.00;46.92
75425;BME280;64007;50.632;13.700;2023-05-07T11:44:02;98498.84;;;19.07;47.30
75425;BME280;64007;50.632;13.700;2023-05-07T11:46:28;98495.97;;;18.93;46.25
75425;BME280;64007;50.632;13.700;2023-05-07T11:48:55;98496.47;;;18.88;48.88
75425;BME280;64007;50.632;13.700;2023-05-07T11:51:23;98498.00;;;19.15;51.07
75425;BME280;64007;50.632;13.700;2023-05-07T11:53:49;98504.06;;;19.09;48.90
75425;BME280;64007;50.632;13.700;2023-05-07T11:56:17;98502.03;;;19.11;48.13
75425;BME280;64007;50.632;13.700;2023-05-07T11:58:44;98498.88;;;19.32;48.55
75425;BME280;64007;50.632;13.700;2023-05-07T12:01:11;98488.59;;;19.52;47.00
75425;BME280;64007;50.632;13.700;2023-05-07T12:03:40;98498.91;;;19.81;47.78
75425;BME280;64007;50.632;13.700;2023-05-07T12:06:10;98500.06;;;19.94;46.00
75425;BME280;64007;50.632;13.700;2023-05-07T12:08:38;98503.13;;;19.67;47.93
75425;BME280;64007;50.632;13.700;2023-05-07T12:11:07;98511.53;;;19.31;48.10
75425;BME280;64007;50.632;13.700;2023-05-07T12:13:34;98507.59;;;19.18;47.60
75425;BME280;64007;50.632;13.700;2023-05-07T12:16:00;98505.22;;;18.90;48.05
75425;BME280;64007;50.632;13.700;2023-05-07T12:18:28;98509.25;;;18.86;49.59
75425;BME280;64007;50.632;13.700;2023-05-07T12:20:54;98503.66;;;18.79;49.96
75425;BME280;64007;50.632;13.700;2023-05-07T12:23:20;98503.69;;;18.11;49.87
75425;BME280;64007;50.632;13.700;2023-05-07T12:25:46;98503.09;;;17.74;51.84
75425;BME280;64007;50.632;13.700;2023-05-07T12:28:18;98502.81;;;17.85;52.28
75425;BME280;64007;50.632;13.700;2023-05-07T12:30:47;98502.06;;;18.27;51.71
75425;BME280;64007;50.632;13.700;2023-05-07T12:33:17;98509.25;;;18.86;50.18
75425;BME280;64007;50.632;13.700;2023-05-07T12:35:43;98513.53;;;19.21;48.34
75425;BME280;64007;50.632;13.700;2023-05-07T12:38:14;98513.84;;;19.18;47.92
75425;BME280;64007;50.632;13.700;2023-05-07T12:40:42;98517.91;;;19.22;47.32
75425;BME280;64007;50.632;13.700;2023-05-07T12:43:15;98514.84;;;19.09;47.42
75425;BME280;64007;50.632;13.700;2023-05-07T12:45:42;98508.41;;;18.86;47.67
75425;BME280;64007;50.632;13.700;2023-05-07T12:48:10;98508.28;;;18.27;49.71
75425;BME280;64007;50.632;13.700;2023-05-07T12:50:36;98514.31;;;17.95;51.66
75425;BME280;64007;50.632;13.700;2023-05-07T12:53:06;98513.28;;;17.88;51.18
75425;BME280;64007;50.632;13.700;2023-05-07T12:55:46;98505.03;;;18.15;51.01
75425;BME280;64007;50.632;13.700;2023-05-07T12:58:20;98501.78;;;18.72;50.93
75425;BME280;64007;50.632;13.700;2023-05-07T13:00:50;98503.94;;;19.35;50.21